Truro, Massachusetts
Current Conditions -  °F | °C
As of 1:55 AM on Sunday 26 Oct 2014 (Local Time) from KPVC Reporting Station
Broken Clouds Broken Clouds  
Wind Chill: 59°   Ceiling: 12000
Heat Index: 59°   Visibility: 10mi
Dew Point:   Wind: 16mph
Humidity: 11%   Direction: 250°WSW
Pressure: 29.48"   Gusts: 28mph
Location:  42°N, 70.07°W
Report Text: KPVC 260555Z 25014G24KT 10SM FEW070 SCT090 BKN120 15/M16 A2948 RMK AO1 10150 20120 57024
Loading
Personal Weather Stations






























Interactive Weather Map
Tropical Storm Tracking
New forecast layout! Learn more

10-Day Weather Forecast

Advertisements
Track Severe Weather on mobile